sensor_id;sensor_type;location;lat;lon;timestamp;P1;durP1;ratioP1;P2;durP2;ratioP2
23800;SDS011;12081;48.614;10.226;2023-02-24T00:02:14;28.57;;;14.27;;
23800;SDS011;12081;48.614;10.226;2023-02-24T00:05:02;46.03;;;24.20;;
23800;SDS011;12081;48.614;10.226;2023-02-24T00:07:46;50.73;;;24.70;;
23800;SDS011;12081;48.614;10.226;2023-02-24T00:10:30;50.47;;;25.37;;
23800;SDS011;12081;48.614;10.226;2023-02-24T00:13:15;37.47;;;19.73;;
23800;SDS011;12081;48.614;10.226;2023-02-24T00:16:05;36.17;;;18.73;;
23800;SDS011;12081;48.614;10.226;2023-02-24T00:18:50;27.73;;;15.43;;
23800;SDS011;12081;48.614;10.226;2023-02-24T00:21:34;26.87;;;15.83;;
23800;SDS011;12081;48.614;10.226;2023-02-24T00:24:19;28.13;;;14.17;;
23800;SDS011;12081;48.614;10.226;2023-02-24T00:27:05;21.27;;;13.03;;
23800;SDS011;12081;48.614;10.226;2023-02-24T00:29:50;17.10;;;10.57;;
23800;SDS011;12081;48.614;10.226;2023-02-24T00:32:34;17.57;;;11.33;;
23800;SDS011;12081;48.614;10.226;2023-02-24T00:35:19;18.63;;;11.57;;
23800;SDS011;12081;48.614;10.226;2023-02-24T00:38:03;20.47;;;12.13;;
23800;SDS011;12081;48.614;10.226;2023-02-24T00:40:47;14.37;;;10.27;;
23800;SDS011;12081;48.614;10.226;2023-02-24T00:43:32;16.23;;;10.83;;
23800;SDS011;12081;48.614;10.226;2023-02-24T00:46:20;18.13;;;11.23;;
23800;SDS011;12081;48.614;10.226;2023-02-24T00:49:10;14.70;;;10.13;;
23800;SDS011;12081;48.614;10.226;2023-02-24T00:52:00;16.63;;;11.57;;
23800;SDS011;12081;48.614;10.226;2023-02-24T00:54:49;18.63;;;11.87;;
23800;SDS011;12081;48.614;10.226;2023-02-24T00:57:33;13.97;;;10.20;;
23800;SDS011;12081;48.614;10.226;2023-02-24T01:00:18;19.00;;;11.83;;
23800;SDS011;12081;48.614;10.226;2023-02-24T01:03:03;16.60;;;11.47;;
23800;SDS011;12081;48.614;10.226;2023-02-24T01:05:47;17.03;;;11.70;;
23800;SDS011;12081;48.614;10.226;2023-02-24T01:08:31;17.97;;;11.90;;
23800;SDS011;12081;48.614;10.226;2023-02-24T01:11:21;15.47;;;11.30;;
23800;SDS011;12081;48.614;10.226;2023-02-24T01:14:29;15.47;;;10.70;;
23800;SDS011;12081;48.614;10.226;2023-02-24T01:17:16;14.77;;;10.90;;
23800;SDS011;12081;48.614;10.226;2023-02-24T01:20:02;17.30;;;11.53;;
23800;SDS011;12081;48.614;10.226;2023-02-24T01:23:02;13.13;;;10.63;;
23800;SDS011;12081;48.614;10.226;2023-02-24T01:25:46;14.87;;;10.00;;
23800;SDS011;12081;48.614;10.226;2023-02-24T01:28:30;16.10;;;10.77;;
23800;SDS011;12081;48.614;10.226;2023-02-24T01:31:15;16.73;;;10.73;;
23800;SDS011;12081;48.614;10.226;2023-02-24T01:34:01;17.73;;;11.33;;
23800;SDS011;12081;48.614;10.226;2023-02-24T01:36:48;14.37;;;10.30;;
23800;SDS011;12081;48.614;10.226;2023-02-24T01:39:32;14.33;;;9.87;;
23800;SDS011;12081;48.614;10.226;2023-02-24T01:42:19;15.00;;;9.90;;
23800;SDS011;12081;48.614;10.226;2023-02-24T01:45:05;20.67;;;10.97;;
23800;SDS011;12081;48.614;10.226;2023-02-24T01:47:58;14.80;;;10.27;;
23800;SDS011;12081;48.614;10.226;2023-02-24T01:50:44;16.90;;;9.93;;
23800;SDS011;12081;48.614;10.226;2023-02-24T01:53:29;17.07;;;10.50;;
23800;SDS011;12081;48.614;10.226;2023-02-24T01:56:14;14.43;;;9.63;;
23800;SDS011;12081;48.614;10.226;2023-02-24T01:58:59;15.27;;;10.10;;
23800;SDS011;12081;48.614;10.226;2023-02-24T02:01:45;16.00;;;9.60;;
23800;SDS011;12081;48.614;10.226;2023-02-24T02:04:33;14.47;;;9.70;;
23800;SDS011;12081;48.614;10.226;2023-02-24T02:07:21;16.43;;;9.73;;
23800;SDS011;12081;48.614;10.226;2023-02-24T02:10:08;14.77;;;9.53;;
23800;SDS011;12081;48.614;10.226;2023-02-24T02:12:52;15.23;;;9.10;;
23800;SDS011;12081;48.614;10.226;2023-02-24T02:15:44;13.40;;;8.80;;
23800;SDS011;12081;48.614;10.226;2023-02-24T02:18:39;16.23;;;10.43;;
23800;SDS011;12081;48.614;10.226;2023-02-24T02:21:35;20.90;;;11.80;;
23800;SDS011;12081;48.614;10.226;2023-02-24T02:24:28;17.47;;;10.97;;
23800;SDS011;12081;48.614;10.226;2023-02-24T02:30:37;21.40;;;11.73;;
23800;SDS011;12081;48.614;10.226;2023-02-24T02:40:09;20.00;;;12.03;;
23800;SDS011;12081;48.614;10.226;2023-02-24T02:46:07;19.77;;;12.73;;
23800;SDS011;12081;48.614;10.226;2023-02-24T02:48:57;20.17;;;12.70;;
23800;SDS011;12081;48.614;10.226;2023-02-24T02:51:47;20.20;;;11.87;;
23800;SDS011;12081;48.614;10.226;2023-02-24T02:57:28;19.27;;;12.23;;
23800;SDS011;12081;48.614;10.226;2023-02-24T03:00:17;21.90;;;13.40;;
23800;SDS011;12081;48.614;10.226;2023-02-24T03:03:24;22.07;;;14.93;;
23800;SDS011;12081;48.614;10.226;2023-02-24T03:09:01;25.87;;;17.53;;
23800;SDS011;12081;48.614;10.226;2023-02-24T03:12:00;26.13;;;17.80;;
23800;SDS011;12081;48.614;10.226;2023-02-24T03:14:49;25.20;;;17.73;;
23800;SDS011;12081;48.614;10.226;2023-02-24T03:17:41;27.03;;;17.63;;
23800;SDS011;12081;48.614;10.226;2023-02-24T03:20:29;28.33;;;18.60;;
23800;SDS011;12081;48.614;10.226;2023-02-24T03:23:22;25.97;;;18.67;;
23800;SDS011;12081;48.614;10.226;2023-02-24T03:26:24;25.90;;;18.43;;
23800;SDS011;12081;48.614;10.226;2023-02-24T03:29:15;25.47;;;18.57;;
23800;SDS011;12081;48.614;10.226;2023-02-24T03:32:23;27.80;;;18.47;;
23800;SDS011;12081;48.614;10.226;2023-02-24T03:35:16;31.27;;;19.47;;
23800;SDS011;12081;48.614;10.226;2023-02-24T03:38:05;23.80;;;18.03;;
23800;SDS011;12081;48.614;10.226;2023-02-24T03:40:50;30.63;;;20.20;;
23800;SDS011;12081;48.614;10.226;2023-02-24T03:43:34;29.00;;;19.13;;
23800;SDS011;12081;48.614;10.226;2023-02-24T03:46:25;29.10;;;18.40;;
23800;SDS011;12081;48.614;10.226;2023-02-24T03:49:11;25.67;;;16.90;;
23800;SDS011;12081;48.614;10.226;2023-02-24T03:52:19;23.50;;;15.63;;
23800;SDS011;12081;48.614;10.226;2023-02-24T04:01:21;27.63;;;17.57;;
23800;SDS011;12081;48.614;10.226;2023-02-24T04:04:10;31.23;;;20.20;;
23800;SDS011;12081;48.614;10.226;2023-02-24T04:09:55;33.57;;;21.07;;
23800;SDS011;12081;48.614;10.226;2023-02-24T04:15:31;42.07;;;25.07;;
23800;SDS011;12081;48.614;10.226;2023-02-24T04:18:21;46.60;;;28.13;;
23800;SDS011;12081;48.614;10.226;2023-02-24T04:21:09;60.17;;;31.27;;
23800;SDS011;12081;48.614;10.226;2023-02-24T04:23:54;61.10;;;31.80;;
23800;SDS011;12081;48.614;10.226;2023-02-24T04:26:40;60.87;;;33.83;;
23800;SDS011;12081;48.614;10.226;2023-02-24T04:29:27;54.50;;;32.17;;
23800;SDS011;12081;48.614;10.226;2023-02-24T04:32:20;52.87;;;30.43;;
23800;SDS011;12081;48.614;10.226;2023-02-24T04:35:11;53.63;;;27.70;;
23800;SDS011;12081;48.614;10.226;2023-02-24T04:37:57;52.87;;;28.53;;
23800;SDS011;12081;48.614;10.226;2023-02-24T04:40:41;52.43;;;29.40;;
23800;SDS011;12081;48.614;10.226;2023-02-24T04:43:25;58.87;;;31.43;;
23800;SDS011;12081;48.614;10.226;2023-02-24T04:46:09;65.93;;;32.07;;
23800;SDS011;12081;48.614;10.226;2023-02-24T04:48:56;55.57;;;29.80;;
23800;SDS011;12081;48.614;10.226;2023-02-24T04:51:40;66.73;;;32.90;;
23800;SDS011;12081;48.614;10.226;2023-02-24T04:54:27;64.67;;;33.60;;
23800;SDS011;12081;48.614;10.226;2023-02-24T04:57:12;63.53;;;32.87;;
23800;SDS011;12081;48.614;10.226;2023-02-24T04:59:56;55.13;;;30.47;;
23800;SDS011;12081;48.614;10.226;2023-02-24T05:02:41;57.73;;;30.80;;
23800;SDS011;12081;48.614;10.226;2023-02-24T05:05:25;61.67;;;31.23;;
23800;SDS011;12081;48.614;10.226;2023-02-24T05:08:10;69.17;;;33.50;;
23800;SDS011;12081;48.614;10.226;2023-02-24T05:10:54;57.17;;;31.30;;
23800;SDS011;12081;48.614;10.226;2023-02-24T05:13:48;60.57;;;30.63;;
23800;SDS011;12081;48.614;10.226;2023-02-24T05:16:33;62.13;;;32.33;;
23800;SDS011;12081;48.614;10.226;2023-02-24T05:19:18;59.27;;;31.23;;
23800;SDS011;12081;48.614;10.226;2023-02-24T05:22:22;54.00;;;31.33;;
23800;SDS011;12081;48.614;10.226;2023-02-24T05:25:06;55.73;;;30.47;;
23800;SDS011;12081;48.614;10.226;2023-02-24T05:27:50;54.53;;;29.73;;
23800;SDS011;12081;48.614;10.226;2023-02-24T05:30:34;56.00;;;30.10;;
23800;SDS011;12081;48.614;10.226;2023-02-24T05:33:19;55.07;;;28.40;;
23800;SDS011;12081;48.614;10.226;2023-02-24T05:36:07;56.97;;;30.77;;
23800;SDS011;12081;48.614;10.226;2023-02-24T05:38:54;58.10;;;32.00;;
23800;SDS011;12081;48.614;10.226;2023-02-24T05:41:48;60.10;;;30.10;;
23800;SDS011;12081;48.614;10.226;2023-02-24T05:44:33;60.70;;;31.00;;
23800;SDS011;12081;48.614;10.226;2023-02-24T05:47:18;57.93;;;30.33;;
23800;SDS011;12081;48.614;10.226;2023-02-24T05:50:04;58.57;;;32.50;;
23800;SDS011;12081;48.614;10.226;2023-02-24T05:52:51;62.73;;;30.77;;
23800;SDS011;12081;48.614;10.226;2023-02-24T05:55:38;62.57;;;30.47;;
23800;SDS011;12081;48.614;10.226;2023-02-24T05:58:22;53.37;;;29.33;;
23800;SDS011;12081;48.614;10.226;2023-02-24T06:01:08;56.10;;;30.10;;
23800;SDS011;12081;48.614;10.226;2023-02-24T06:03:59;58.70;;;29.63;;
23800;SDS011;12081;48.614;10.226;2023-02-24T06:06:48;59.33;;;31.37;;
23800;SDS011;12081;48.614;10.226;2023-02-24T06:09:35;56.87;;;28.67;;
23800;SDS011;12081;48.614;10.226;2023-02-24T06:12:23;58.80;;;29.30;;
23800;SDS011;12081;48.614;10.226;2023-02-24T06:15:10;58.87;;;29.93;;
23800;SDS011;12081;48.614;10.226;2023-02-24T06:18:01;53.67;;;29.43;;
23800;SDS011;12081;48.614;10.226;2023-02-24T06:20:45;55.70;;;27.87;;
23800;SDS011;12081;48.614;10.226;2023-02-24T06:23:33;56.63;;;31.20;;
23800;SDS011;12081;48.614;10.226;2023-02-24T06:26:17;59.00;;;28.33;;
23800;SDS011;12081;48.614;10.226;2023-02-24T06:29:02;55.90;;;29.90;;
23800;SDS011;12081;48.614;10.226;2023-02-24T06:31:59;56.23;;;29.60;;
23800;SDS011;12081;48.614;10.226;2023-02-24T06:34:50;54.13;;;28.63;;
23800;SDS011;12081;48.614;10.226;2023-02-24T06:37:36;42.73;;;25.87;;
23800;SDS011;12081;48.614;10.226;2023-02-24T06:40:22;37.37;;;22.70;;
23800;SDS011;12081;48.614;10.226;2023-02-24T06:43:07;34.53;;;19.80;;
23800;SDS011;12081;48.614;10.226;2023-02-24T06:45:53;35.83;;;22.87;;
23800;SDS011;12081;48.614;10.226;2023-02-24T06:48:38;38.17;;;22.57;;
23800;SDS011;12081;48.614;10.226;2023-02-24T06:51:22;38.43;;;23.70;;
23800;SDS011;12081;48.614;10.226;2023-02-24T06:54:07;40.33;;;22.77;;
23800;SDS011;12081;48.614;10.226;2023-02-24T06:56:52;45.93;;;26.37;;
23800;SDS011;12081;48.614;10.226;2023-02-24T06:59:37;64.27;;;42.20;;
23800;SDS011;12081;48.614;10.226;2023-02-24T07:02:22;50.07;;;28.07;;
23800;SDS011;12081;48.614;10.226;2023-02-24T07:05:12;48.37;;;28.20;;
23800;SDS011;12081;48.614;10.226;2023-02-24T07:07:57;44.07;;;26.27;;
23800;SDS011;12081;48.614;10.226;2023-02-24T07:10:41;46.73;;;27.03;;
23800;SDS011;12081;48.614;10.226;2023-02-24T07:13:26;53.07;;;28.10;;
23800;SDS011;12081;48.614;10.226;2023-02-24T07:16:14;50.00;;;27.33;;
23800;SDS011;12081;48.614;10.226;2023-02-24T07:19:01;46.60;;;26.67;;
23800;SDS011;12081;48.614;10.226;2023-02-24T07:21:54;48.97;;;28.17;;
23800;SDS011;12081;48.614;10.226;2023-02-24T07:24:42;75.50;;;48.50;;
23800;SDS011;12081;48.614;10.226;2023-02-24T07:27:28;50.63;;;33.00;;
23800;SDS011;12081;48.614;10.226;2023-02-24T07:30:12;51.53;;;32.20;;
23800;SDS011;12081;48.614;10.226;2023-02-24T07:32:58;58.00;;;36.67;;
23800;SDS011;12081;48.614;10.226;2023-02-24T07:35:42;42.67;;;26.80;;
23800;SDS011;12081;48.614;10.226;2023-02-24T07:38:31;33.37;;;21.83;;
23800;SDS011;12081;48.614;10.226;2023-02-24T07:41:15;34.73;;;22.03;;
23800;SDS011;12081;48.614;10.226;2023-02-24T07:44:01;35.83;;;23.50;;
23800;SDS011;12081;48.614;10.226;2023-02-24T07:46:46;33.23;;;22.67;;
23800;SDS011;12081;48.614;10.226;2023-02-24T07:49:32;32.70;;;21.07;;
23800;SDS011;12081;48.614;10.226;2023-02-24T07:52:17;33.63;;;21.73;;
23800;SDS011;12081;48.614;10.226;2023-02-24T07:55:01;34.20;;;21.90;;
23800;SDS011;12081;48.614;10.226;2023-02-24T07:57:46;38.53;;;24.40;;
23800;SDS011;12081;48.614;10.226;2023-02-24T08:00:30;39.87;;;25.70;;
23800;SDS011;12081;48.614;10.226;2023-02-24T08:03:32;42.90;;;28.63;;
23800;SDS011;12081;48.614;10.226;2023-02-24T08:06:20;29.50;;;19.57;;
23800;SDS011;12081;48.614;10.226;2023-02-24T08:09:21;29.93;;;18.23;;
23800;SDS011;12081;48.614;10.226;2023-02-24T08:12:50;27.60;;;18.77;;
23800;SDS011;12081;48.614;10.226;2023-02-24T08:15:37;26.47;;;17.73;;
23800;SDS011;12081;48.614;10.226;2023-02-24T08:18:21;23.90;;;17.70;;
23800;SDS011;12081;48.614;10.226;2023-02-24T08:21:05;24.73;;;16.93;;
23800;SDS011;12081;48.614;10.226;2023-02-24T08:23:49;25.57;;;17.17;;
23800;SDS011;12081;48.614;10.226;2023-02-24T08:26:35;27.10;;;17.77;;
23800;SDS011;12081;48.614;10.226;2023-02-24T08:29:34;27.13;;;18.07;;
23800;SDS011;12081;48.614;10.226;2023-02-24T08:32:27;19.93;;;15.30;;
23800;SDS011;12081;48.614;10.226;2023-02-24T08:35:16;30.37;;;19.60;;
23800;SDS011;12081;48.614;10.226;2023-02-24T08:38:03;29.83;;;20.10;;
23800;SDS011;12081;48.614;10.226;2023-02-24T08:40:50;35.33;;;24.63;;
23800;SDS011;12081;48.614;10.226;2023-02-24T08:43:46;25.97;;;17.83;;
23800;SDS011;12081;48.614;10.226;2023-02-24T08:46:37;36.80;;;22.97;;
23800;SDS011;12081;48.614;10.226;2023-02-24T08:49:23;48.87;;;26.47;;
23800;SDS011;12081;48.614;10.226;2023-02-24T08:52:07;29.93;;;18.47;;
23800;SDS011;12081;48.614;10.226;2023-02-24T08:54:52;29.83;;;18.63;;
23800;SDS011;12081;48.614;10.226;2023-02-24T08:57:41;36.13;;;18.63;;
23800;SDS011;12081;48.614;10.226;2023-02-24T09:00:34;32.37;;;18.10;;
23800;SDS011;12081;48.614;10.226;2023-02-24T09:03:36;31.43;;;19.00;;
23800;SDS011;12081;48.614;10.226;2023-02-24T09:09:26;30.20;;;19.30;;
23800;SDS011;12081;48.614;10.226;2023-02-24T09:12:11;32.03;;;19.07;;
23800;SDS011;12081;48.614;10.226;2023-02-24T09:15:08;54.40;;;28.73;;
23800;SDS011;12081;48.614;10.226;2023-02-24T09:17:53;27.70;;;16.40;;
23800;SDS011;12081;48.614;10.226;2023-02-24T09:20:49;25.33;;;16.93;;
23800;SDS011;12081;48.614;10.226;2023-02-24T09:23:40;30.03;;;19.40;;
23800;SDS011;12081;48.614;10.226;2023-02-24T09:26:31;34.20;;;20.67;;
23800;SDS011;12081;48.614;10.226;2023-02-24T09:29:26;42.20;;;24.77;;
23800;SDS011;12081;48.614;10.226;2023-02-24T09:32:16;36.80;;;23.27;;
23800;SDS011;12081;48.614;10.226;2023-02-24T09:35:00;42.60;;;26.03;;
23800;SDS011;12081;48.614;10.226;2023-02-24T09:37:45;41.27;;;24.03;;
23800;SDS011;12081;48.614;10.226;2023-02-24T09:40:29;32.17;;;18.70;;
23800;SDS011;12081;48.614;10.226;2023-02-24T09:43:28;27.73;;;17.67;;
23800;SDS011;12081;48.614;10.226;2023-02-24T09:46:13;30.33;;;16.67;;
23800;SDS011;12081;48.614;10.226;2023-02-24T09:49:10;28.77;;;16.87;;
23800;SDS011;12081;48.614;10.226;2023-02-24T09:52:00;25.97;;;16.63;;
23800;SDS011;12081;48.614;10.226;2023-02-24T09:54:51;26.40;;;17.50;;
23800;SDS011;12081;48.614;10.226;2023-02-24T10:04:32;30.80;;;17.30;;
23800;SDS011;12081;48.614;10.226;2023-02-24T10:07:32;33.93;;;18.07;;
23800;SDS011;12081;48.614;10.226;2023-02-24T10:10:28;34.20;;;17.50;;
23800;SDS011;12081;48.614;10.226;2023-02-24T10:13:19;32.07;;;17.90;;
23800;SDS011;12081;48.614;10.226;2023-02-24T10:16:13;35.83;;;20.07;;
23800;SDS011;12081;48.614;10.226;2023-02-24T10:22:13;33.93;;;20.43;;
23800;SDS011;12081;48.614;10.226;2023-02-24T10:25:28;36.90;;;20.40;;
23800;SDS011;12081;48.614;10.226;2023-02-24T10:31:33;32.93;;;19.07;;
23800;SDS011;12081;48.614;10.226;2023-02-24T10:34:28;32.00;;;19.47;;
23800;SDS011;12081;48.614;10.226;2023-02-24T10:37:17;32.20;;;20.40;;
23800;SDS011;12081;48.614;10.226;2023-02-24T10:40:05;36.83;;;21.00;;
23800;SDS011;12081;48.614;10.226;2023-02-24T10:43:05;31.77;;;19.47;;
23800;SDS011;12081;48.614;10.226;2023-02-24T10:45:53;31.27;;;18.23;;
23800;SDS011;12081;48.614;10.226;2023-02-24T10:48:54;31.77;;;19.80;;
23800;SDS011;12081;48.614;10.226;2023-02-24T10:51:46;38.87;;;19.90;;
23800;SDS011;12081;48.614;10.226;2023-02-24T10:54:34;32.80;;;17.70;;
23800;SDS011;12081;48.614;10.226;2023-02-24T10:57:47;33.70;;;19.20;;
23800;SDS011;12081;48.614;10.226;2023-02-24T11:00:44;33.13;;;19.33;;
23800;SDS011;12081;48.614;10.226;2023-02-24T11:03:52;35.50;;;19.73;;
23800;SDS011;12081;48.614;10.226;2023-02-24T11:06:44;29.47;;;18.23;;
23800;SDS011;12081;48.614;10.226;2023-02-24T11:09:40;28.93;;;19.10;;
23800;SDS011;12081;48.614;10.226;2023-02-24T11:12:35;35.87;;;19.20;;
23800;SDS011;12081;48.614;10.226;2023-02-24T11:15:52;37.70;;;19.57;;
23800;SDS011;12081;48.614;10.226;2023-02-24T11:18:56;29.97;;;19.10;;
23800;SDS011;12081;48.614;10.226;2023-02-24T11:21:40;29.67;;;18.17;;
23800;SDS011;12081;48.614;10.226;2023-02-24T11:24:25;33.23;;;19.37;;
23800;SDS011;12081;48.614;10.226;2023-02-24T11:27:11;33.33;;;18.10;;
23800;SDS011;12081;48.614;10.226;2023-02-24T11:30:15;38.77;;;19.43;;
23800;SDS011;12081;48.614;10.226;2023-02-24T11:42:40;22.90;;;10.93;;
23800;SDS011;12081;48.614;10.226;2023-02-24T11:45:32;18.80;;;10.63;;
23800;SDS011;12081;48.614;10.226;2023-02-24T11:48:36;23.77;;;11.40;;
23800;SDS011;12081;48.614;10.226;2023-02-24T11:51:27;23.20;;;11.40;;
23800;SDS011;12081;48.614;10.226;2023-02-24T12:01:11;21.50;;;11.40;;
23800;SDS011;12081;48.614;10.226;2023-02-24T12:04:16;22.50;;;11.90;;
23800;SDS011;12081;48.614;10.226;2023-02-24T12:10:06;20.93;;;11.80;;
23800;SDS011;12081;48.614;10.226;2023-02-24T12:16:10;23.87;;;12.50;;
23800;SDS011;12081;48.614;10.226;2023-02-24T12:22:14;21.73;;;10.77;;
23800;SDS011;12081;48.614;10.226;2023-02-24T12:24:58;23.30;;;12.10;;
23800;SDS011;12081;48.614;10.226;2023-02-24T12:27:56;24.33;;;12.47;;
23800;SDS011;12081;48.614;10.226;2023-02-24T12:34:05;28.87;;;13.47;;
23800;SDS011;12081;48.614;10.226;2023-02-24T12:40:03;28.00;;;12.20;;
23800;SDS011;12081;48.614;10.226;2023-02-24T12:43:26;26.87;;;12.67;;
23800;SDS011;12081;48.614;10.226;2023-02-24T12:46:25;24.50;;;12.80;;
23800;SDS011;12081;48.614;10.226;2023-02-24T12:52:31;22.07;;;11.20;;
23800;SDS011;12081;48.614;10.226;2023-02-24T12:55:48;28.13;;;12.00;;
23800;SDS011;12081;48.614;10.226;2023-02-24T12:58:41;19.30;;;10.87;;
23800;SDS011;12081;48.614;10.226;2023-02-24T13:13:26;20.93;;;10.77;;
23800;SDS011;12081;48.614;10.226;2023-02-24T13:16:31;22.53;;;9.17;;
23800;SDS011;12081;48.614;10.226;2023-02-24T13:19:20;21.07;;;11.23;;
23800;SDS011;12081;48.614;10.226;2023-02-24T13:25:02;17.63;;;9.20;;
23800;SDS011;12081;48.614;10.226;2023-02-24T13:28:01;19.67;;;9.13;;
23800;SDS011;12081;48.614;10.226;2023-02-24T13:30:56;22.60;;;9.37;;
23800;SDS011;12081;48.614;10.226;2023-02-24T13:37:35;18.27;;;8.60;;
23800;SDS011;12081;48.614;10.226;2023-02-24T13:40:22;20.07;;;8.70;;
23800;SDS011;12081;48.614;10.226;2023-02-24T13:43:24;18.40;;;9.00;;
23800;SDS011;12081;48.614;10.226;2023-02-24T13:46:16;22.57;;;9.80;;
23800;SDS011;12081;48.614;10.226;2023-02-24T13:49:04;21.17;;;9.57;;
23800;SDS011;12081;48.614;10.226;2023-02-24T13:58:45;22.90;;;8.70;;
23800;SDS011;12081;48.614;10.226;2023-02-24T14:01:43;24.17;;;9.23;;
23800;SDS011;12081;48.614;10.226;2023-02-24T14:04:33;20.13;;;8.23;;
23800;SDS011;12081;48.614;10.226;2023-02-24T14:07:22;20.83;;;8.07;;
23800;SDS011;12081;48.614;10.226;2023-02-24T14:10:17;20.97;;;9.73;;
23800;SDS011;12081;48.614;10.226;2023-02-24T14:13:24;19.40;;;8.70;;
23800;SDS011;12081;48.614;10.226;2023-02-24T14:16:13;14.63;;;7.37;;
23800;SDS011;12081;48.614;10.226;2023-02-24T14:19:05;22.67;;;9.57;;
23800;SDS011;12081;48.614;10.226;2023-02-24T14:21:57;18.63;;;9.73;;
23800;SDS011;12081;48.614;10.226;2023-02-24T14:24:42;23.03;;;9.80;;
23800;SDS011;12081;48.614;10.226;2023-02-24T14:27:26;25.90;;;11.53;;
23800;SDS011;12081;48.614;10.226;2023-02-24T14:30:24;15.70;;;8.73;;
23800;SDS011;12081;48.614;10.226;2023-02-24T14:36:22;16.60;;;9.33;;
23800;SDS011;12081;48.614;10.226;2023-02-24T14:39:16;12.70;;;7.83;;
23800;SDS011;12081;48.614;10.226;2023-02-24T14:44:52;23.20;;;8.97;;
23800;SDS011;12081;48.614;10.226;2023-02-24T14:47:39;20.43;;;9.17;;
23800;SDS011;12081;48.614;10.226;2023-02-24T14:50:27;17.43;;;7.60;;
23800;SDS011;12081;48.614;10.226;2023-02-24T14:53:14;19.30;;;7.23;;
23800;SDS011;12081;48.614;10.226;2023-02-24T14:56:02;17.50;;;7.70;;
23800;SDS011;12081;48.614;10.226;2023-02-24T14:58:52;17.30;;;7.87;;
23800;SDS011;12081;48.614;10.226;2023-02-24T15:01:42;14.90;;;7.03;;
23800;SDS011;12081;48.614;10.226;2023-02-24T15:04:32;14.33;;;6.93;;
23800;SDS011;12081;48.614;10.226;2023-02-24T15:07:20;14.43;;;6.67;;
23800;SDS011;12081;48.614;10.226;2023-02-24T15:10:15;18.23;;;7.73;;
23800;SDS011;12081;48.614;10.226;2023-02-24T15:13:13;17.57;;;7.07;;
23800;SDS011;12081;48.614;10.226;2023-02-24T15:16:02;14.97;;;6.93;;
23800;SDS011;12081;48.614;10.226;2023-02-24T15:18:56;21.53;;;7.27;;
23800;SDS011;12081;48.614;10.226;2023-02-24T15:21:41;16.27;;;8.03;;
23800;SDS011;12081;48.614;10.226;2023-02-24T15:24:32;20.50;;;7.50;;
23800;SDS011;12081;48.614;10.226;2023-02-24T15:27:19;20.07;;;8.20;;
23800;SDS011;12081;48.614;10.226;2023-02-24T15:30:32;17.93;;;6.90;;
23800;SDS011;12081;48.614;10.226;2023-02-24T15:33:21;18.80;;;6.37;;
23800;SDS011;12081;48.614;10.226;2023-02-24T15:36:10;19.03;;;6.67;;
23800;SDS011;12081;48.614;10.226;2023-02-24T15:39:02;21.77;;;7.57;;
23800;SDS011;12081;48.614;10.226;2023-02-24T15:42:04;23.70;;;6.83;;
23800;SDS011;12081;48.614;10.226;2023-02-24T15:45:21;15.17;;;7.43;;
23800;SDS011;12081;48.614;10.226;2023-02-24T15:48:20;13.47;;;6.67;;
23800;SDS011;12081;48.614;10.226;2023-02-24T15:51:13;17.87;;;7.10;;
23800;SDS011;12081;48.614;10.226;2023-02-24T15:54:10;19.07;;;7.03;;
23800;SDS011;12081;48.614;10.226;2023-02-24T15:56:57;19.60;;;6.83;;
23800;SDS011;12081;48.614;10.226;2023-02-24T15:59:43;19.30;;;6.90;;
23800;SDS011;12081;48.614;10.226;2023-02-24T16:02:27;15.07;;;7.37;;
23800;SDS011;12081;48.614;10.226;2023-02-24T16:05:13;12.40;;;6.40;;
23800;SDS011;12081;48.614;10.226;2023-02-24T16:07:58;12.73;;;6.40;;
23800;SDS011;12081;48.614;10.226;2023-02-24T16:10:43;17.97;;;6.00;;
23800;SDS011;12081;48.614;10.226;2023-02-24T16:13:27;17.20;;;6.90;;
23800;SDS011;12081;48.614;10.226;2023-02-24T16:16:12;14.80;;;6.47;;
23800;SDS011;12081;48.614;10.226;2023-02-24T16:18:57;15.23;;;6.20;;
23800;SDS011;12081;48.614;10.226;2023-02-24T16:21:41;14.70;;;7.33;;
23800;SDS011;12081;48.614;10.226;2023-02-24T16:24:26;17.27;;;7.80;;
23800;SDS011;12081;48.614;10.226;2023-02-24T16:27:14;16.33;;;7.27;;
23800;SDS011;12081;48.614;10.226;2023-02-24T16:29:59;18.30;;;8.27;;
23800;SDS011;12081;48.614;10.226;2023-02-24T16:32:44;16.67;;;7.67;;
23800;SDS011;12081;48.614;10.226;2023-02-24T16:35:29;22.80;;;7.63;;
23800;SDS011;12081;48.614;10.226;2023-02-24T16:38:14;25.07;;;7.57;;
23800;SDS011;12081;48.614;10.226;2023-02-24T16:40:59;21.30;;;8.97;;
23800;SDS011;12081;48.614;10.226;2023-02-24T16:43:44;16.07;;;8.00;;
23800;SDS011;12081;48.614;10.226;2023-02-24T16:46:28;18.87;;;7.63;;
23800;SDS011;12081;48.614;10.226;2023-02-24T16:49:22;16.37;;;7.23;;
23800;SDS011;12081;48.614;10.226;2023-02-24T16:52:08;16.87;;;7.63;;
23800;SDS011;12081;48.614;10.226;2023-02-24T16:54:54;16.00;;;7.73;;
23800;SDS011;12081;48.614;10.226;2023-02-24T16:57:39;17.40;;;8.10;;
23800;SDS011;12081;48.614;10.226;2023-02-24T17:00:24;17.93;;;7.83;;
23800;SDS011;12081;48.614;10.226;2023-02-24T17:03:14;19.53;;;8.70;;
23800;SDS011;12081;48.614;10.226;2023-02-24T17:06:02;16.90;;;8.03;;
23800;SDS011;12081;48.614;10.226;2023-02-24T17:08:46;15.13;;;7.87;;
23800;SDS011;12081;48.614;10.226;2023-02-24T17:11:30;27.43;;;9.93;;
23800;SDS011;12081;48.614;10.226;2023-02-24T17:14:16;17.80;;;9.07;;
23800;SDS011;12081;48.614;10.226;2023-02-24T17:17:01;14.03;;;7.73;;
23800;SDS011;12081;48.614;10.226;2023-02-24T17:19:45;22.97;;;9.27;;
23800;SDS011;12081;48.614;10.226;2023-02-24T17:22:29;22.93;;;10.87;;
23800;SDS011;12081;48.614;10.226;2023-02-24T17:25:15;24.97;;;11.07;;
23800;SDS011;12081;48.614;10.226;2023-02-24T17:28:01;22.27;;;11.73;;
23800;SDS011;12081;48.614;10.226;2023-02-24T17:30:46;18.37;;;10.67;;
23800;SDS011;12081;48.614;10.226;2023-02-24T17:33:30;21.87;;;11.10;;
23800;SDS011;12081;48.614;10.226;2023-02-24T17:36:14;17.77;;;9.20;;
23800;SDS011;12081;48.614;10.226;2023-02-24T17:38:58;15.40;;;8.13;;
23800;SDS011;12081;48.614;10.226;2023-02-24T17:41:43;15.57;;;8.03;;
23800;SDS011;12081;48.614;10.226;2023-02-24T17:44:27;20.17;;;7.57;;
23800;SDS011;12081;48.614;10.226;2023-02-24T17:47:11;15.57;;;7.53;;
23800;SDS011;12081;48.614;10.226;2023-02-24T17:49:56;17.40;;;8.40;;
23800;SDS011;12081;48.614;10.226;2023-02-24T17:52:40;15.43;;;7.37;;
23800;SDS011;12081;48.614;10.226;2023-02-24T17:55:24;22.33;;;8.10;;
23800;SDS011;12081;48.614;10.226;2023-02-24T17:58:08;15.90;;;7.87;;
23800;SDS011;12081;48.614;10.226;2023-02-24T18:00:52;14.40;;;7.43;;
23800;SDS011;12081;48.614;10.226;2023-02-24T18:03:37;18.07;;;7.40;;
23800;SDS011;12081;48.614;10.226;2023-02-24T18:06:21;16.80;;;8.00;;
23800;SDS011;12081;48.614;10.226;2023-02-24T18:09:06;19.47;;;7.93;;
23800;SDS011;12081;48.614;10.226;2023-02-24T18:11:50;16.60;;;7.40;;
23800;SDS011;12081;48.614;10.226;2023-02-24T18:14:34;16.57;;;8.80;;
23800;SDS011;12081;48.614;10.226;2023-02-24T18:17:17;11.50;;;7.13;;